Cape Town, South Africa
Current Conditions -  °F | °C
As of 6:00 PM on Thursday 30 Oct 2014 (Local Time) from FACT Reporting Station
Few Clouds Few Clouds  
Wind Chill: 63°   Ceiling: Unl
Heat Index: 63°   Visibility: 6mi
Dew Point: 41°   Wind: 21mph
Humidity: 45%   Direction: 180°S
Pressure: 30.15"   Gusts: NA
Location:  33.93°S, 18.46°E
Report Text: FACT 301600Z 18018KT 9999 FEW050 17/05 Q1021 NOSIG
Loading
Personal Weather Stations






























Interactive Weather Map
Tropical Storm Tracking
New forecast layout! Learn more

10-Day Weather Forecast

Advertisements
Track Severe Weather on mobile